sensor_id;sensor_type;location;lat;lon;timestamp;P1;durP1;ratioP1;P2;durP2;ratioP2
13571;SDS011;6857;53.484;10.216;2023-04-24T00:00:05;7.60;;;6.13;;
13571;SDS011;6857;53.484;10.216;2023-04-24T00:02:31;7.50;;;6.07;;
13571;SDS011;6857;53.484;10.216;2023-04-24T00:04:58;7.53;;;6.07;;
13571;SDS011;6857;53.484;10.216;2023-04-24T00:07:28;6.90;;;5.70;;
13571;SDS011;6857;53.484;10.216;2023-04-24T00:09:53;8.63;;;6.57;;
13571;SDS011;6857;53.484;10.216;2023-04-24T00:12:19;7.53;;;6.27;;
13571;SDS011;6857;53.484;10.216;2023-04-24T00:14:46;7.33;;;6.20;;
13571;SDS011;6857;53.484;10.216;2023-04-24T00:17:12;7.33;;;6.63;;
13571;SDS011;6857;53.484;10.216;2023-04-24T00:19:38;6.70;;;6.10;;
13571;SDS011;6857;53.484;10.216;2023-04-24T00:22:04;7.57;;;6.67;;
13571;SDS011;6857;53.484;10.216;2023-04-24T00:24:30;7.67;;;6.87;;
13571;SDS011;6857;53.484;10.216;2023-04-24T00:26:56;7.67;;;6.53;;
13571;SDS011;6857;53.484;10.216;2023-04-24T00:29:22;7.60;;;6.77;;
13571;SDS011;6857;53.484;10.216;2023-04-24T00:31:48;7.90;;;6.77;;
13571;SDS011;6857;53.484;10.216;2023-04-24T00:34:14;7.20;;;6.37;;
13571;SDS011;6857;53.484;10.216;2023-04-24T00:36:40;8.03;;;6.70;;
13571;SDS011;6857;53.484;10.216;2023-04-24T00:39:06;7.13;;;6.43;;
13571;SDS011;6857;53.484;10.216;2023-04-24T00:41:35;8.53;;;7.27;;
13571;SDS011;6857;53.484;10.216;2023-04-24T00:44:01;8.73;;;6.77;;
13571;SDS011;6857;53.484;10.216;2023-04-24T00:46:27;7.77;;;5.77;;
13571;SDS011;6857;53.484;10.216;2023-04-24T00:48:53;7.40;;;6.70;;
13571;SDS011;6857;53.484;10.216;2023-04-24T00:51:19;7.17;;;6.47;;
13571;SDS011;6857;53.484;10.216;2023-04-24T00:53:46;6.30;;;5.70;;
13571;SDS011;6857;53.484;10.216;2023-04-24T00:56:12;8.53;;;5.90;;
13571;SDS011;6857;53.484;10.216;2023-04-24T00:58:39;7.07;;;5.83;;
13571;SDS011;6857;53.484;10.216;2023-04-24T01:01:06;7.67;;;6.23;;
13571;SDS011;6857;53.484;10.216;2023-04-24T01:03:32;5.50;;;5.00;;
13571;SDS011;6857;53.484;10.216;2023-04-24T01:05:59;9.07;;;7.67;;
13571;SDS011;6857;53.484;10.216;2023-04-24T01:08:25;6.27;;;5.67;;
13571;SDS011;6857;53.484;10.216;2023-04-24T01:10:52;5.67;;;5.03;;
13571;SDS011;6857;53.484;10.216;2023-04-24T01:13:21;5.63;;;5.13;;
13571;SDS011;6857;53.484;10.216;2023-04-24T01:15:47;5.67;;;5.13;;
13571;SDS011;6857;53.484;10.216;2023-04-24T01:18:13;8.47;;;5.80;;
13571;SDS011;6857;53.484;10.216;2023-04-24T01:20:40;6.20;;;5.33;;
13571;SDS011;6857;53.484;10.216;2023-04-24T01:23:07;6.27;;;5.10;;
13571;SDS011;6857;53.484;10.216;2023-04-24T01:25:34;6.07;;;5.07;;
13571;SDS011;6857;53.484;10.216;2023-04-24T01:28:00;6.70;;;5.40;;
13571;SDS011;6857;53.484;10.216;2023-04-24T01:30:26;7.10;;;5.67;;
13571;SDS011;6857;53.484;10.216;2023-04-24T01:32:52;6.50;;;5.00;;
13571;SDS011;6857;53.484;10.216;2023-04-24T01:35:19;5.30;;;4.80;;
13571;SDS011;6857;53.484;10.216;2023-04-24T01:37:45;5.53;;;5.03;;
13571;SDS011;6857;53.484;10.216;2023-04-24T01:40:11;5.80;;;5.13;;
13571;SDS011;6857;53.484;10.216;2023-04-24T01:42:37;5.47;;;4.97;;
13571;SDS011;6857;53.484;10.216;2023-04-24T01:45:04;5.03;;;4.63;;
13571;SDS011;6857;53.484;10.216;2023-04-24T01:47:31;5.40;;;4.40;;
13571;SDS011;6857;53.484;10.216;2023-04-24T01:49:57;4.50;;;4.10;;
13571;SDS011;6857;53.484;10.216;2023-04-24T01:52:24;5.70;;;4.53;;
13571;SDS011;6857;53.484;10.216;2023-04-24T01:54:50;5.17;;;4.10;;
13571;SDS011;6857;53.484;10.216;2023-04-24T01:57:16;5.90;;;4.47;;
13571;SDS011;6857;53.484;10.216;2023-04-24T01:59:42;4.70;;;3.80;;
13571;SDS011;6857;53.484;10.216;2023-04-24T02:02:08;5.90;;;3.80;;
13571;SDS011;6857;53.484;10.216;2023-04-24T02:04:34;4.77;;;3.73;;
13571;SDS011;6857;53.484;10.216;2023-04-24T02:07:00;4.00;;;3.70;;
13571;SDS011;6857;53.484;10.216;2023-04-24T02:09:26;4.07;;;3.67;;
13571;SDS011;6857;53.484;10.216;2023-04-24T02:11:52;4.30;;;3.90;;
13571;SDS011;6857;53.484;10.216;2023-04-24T02:14:18;5.80;;;4.00;;
13571;SDS011;6857;53.484;10.216;2023-04-24T02:16:44;4.93;;;3.83;;
13571;SDS011;6857;53.484;10.216;2023-04-24T02:19:10;4.23;;;3.80;;
13571;SDS011;6857;53.484;10.216;2023-04-24T02:21:36;4.20;;;3.60;;
13571;SDS011;6857;53.484;10.216;2023-04-24T02:24:02;4.13;;;3.70;;
13571;SDS011;6857;53.484;10.216;2023-04-24T02:26:28;3.70;;;3.40;;
13571;SDS011;6857;53.484;10.216;2023-04-24T02:28:56;4.07;;;3.60;;
13571;SDS011;6857;53.484;10.216;2023-04-24T02:31:22;3.77;;;3.47;;
13571;SDS011;6857;53.484;10.216;2023-04-24T02:33:48;3.50;;;3.17;;
13571;SDS011;6857;53.484;10.216;2023-04-24T02:36:14;3.43;;;2.87;;
13571;SDS011;6857;53.484;10.216;2023-04-24T02:38:40;2.93;;;2.60;;
13571;SDS011;6857;53.484;10.216;2023-04-24T02:41:06;3.03;;;2.73;;
13571;SDS011;6857;53.484;10.216;2023-04-24T02:43:32;3.70;;;2.70;;
13571;SDS011;6857;53.484;10.216;2023-04-24T02:45:58;3.07;;;2.40;;
13571;SDS011;6857;53.484;10.216;2023-04-24T02:48:24;2.63;;;2.40;;
13571;SDS011;6857;53.484;10.216;2023-04-24T02:50:50;2.50;;;2.00;;
13571;SDS011;6857;53.484;10.216;2023-04-24T02:53:16;2.20;;;2.00;;
13571;SDS011;6857;53.484;10.216;2023-04-24T02:55:42;2.93;;;2.00;;
13571;SDS011;6857;53.484;10.216;2023-04-24T02:58:08;2.20;;;1.80;;
13571;SDS011;6857;53.484;10.216;2023-04-24T03:00:35;2.00;;;1.80;;
13571;SDS011;6857;53.484;10.216;2023-04-24T03:03:01;2.23;;;1.63;;
13571;SDS011;6857;53.484;10.216;2023-04-24T03:05:27;2.20;;;1.50;;
13571;SDS011;6857;53.484;10.216;2023-04-24T03:07:53;2.57;;;1.30;;
13571;SDS011;6857;53.484;10.216;2023-04-24T03:10:19;2.10;;;1.50;;
13571;SDS011;6857;53.484;10.216;2023-04-24T03:12:47;1.53;;;1.43;;
13571;SDS011;6857;53.484;10.216;2023-04-24T03:15:13;2.70;;;1.53;;
13571;SDS011;6857;53.484;10.216;2023-04-24T03:17:39;1.97;;;1.60;;
13571;SDS011;6857;53.484;10.216;2023-04-24T03:20:05;2.20;;;1.60;;
13571;SDS011;6857;53.484;10.216;2023-04-24T03:22:33;1.87;;;1.60;;
13571;SDS011;6857;53.484;10.216;2023-04-24T03:24:59;1.50;;;1.40;;
13571;SDS011;6857;53.484;10.216;2023-04-24T03:27:25;2.87;;;1.57;;
13571;SDS011;6857;53.484;10.216;2023-04-24T03:29:51;1.60;;;1.50;;
13571;SDS011;6857;53.484;10.216;2023-04-24T03:32:20;1.50;;;1.40;;
13571;SDS011;6857;53.484;10.216;2023-04-24T03:34:46;1.70;;;1.60;;
13571;SDS011;6857;53.484;10.216;2023-04-24T03:37:12;1.50;;;1.40;;
13571;SDS011;6857;53.484;10.216;2023-04-24T03:39:38;1.60;;;1.43;;
13571;SDS011;6857;53.484;10.216;2023-04-24T03:42:03;1.70;;;1.53;;
13571;SDS011;6857;53.484;10.216;2023-04-24T03:44:29;1.70;;;1.60;;
13571;SDS011;6857;53.484;10.216;2023-04-24T03:46:55;2.53;;;1.63;;
13571;SDS011;6857;53.484;10.216;2023-04-24T03:49:23;3.13;;;1.93;;
13571;SDS011;6857;53.484;10.216;2023-04-24T03:51:49;2.30;;;1.67;;
13571;SDS011;6857;53.484;10.216;2023-04-24T03:54:15;2.27;;;1.90;;
13571;SDS011;6857;53.484;10.216;2023-04-24T03:56:41;2.10;;;1.70;;
13571;SDS011;6857;53.484;10.216;2023-04-24T03:59:07;2.47;;;1.63;;
13571;SDS011;6857;53.484;10.216;2023-04-24T04:01:33;2.83;;;1.70;;
13571;SDS011;6857;53.484;10.216;2023-04-24T04:04:02;2.00;;;1.67;;
13571;SDS011;6857;53.484;10.216;2023-04-24T04:06:28;1.50;;;1.40;;
13571;SDS011;6857;53.484;10.216;2023-04-24T04:08:55;3.53;;;1.90;;
13571;SDS011;6857;53.484;10.216;2023-04-24T04:11:21;1.77;;;1.67;;
13571;SDS011;6857;53.484;10.216;2023-04-24T04:13:47;1.90;;;1.40;;
13571;SDS011;6857;53.484;10.216;2023-04-24T04:16:13;1.80;;;1.70;;
13571;SDS011;6857;53.484;10.216;2023-04-24T04:18:41;2.13;;;1.87;;
13571;SDS011;6857;53.484;10.216;2023-04-24T04:21:07;1.70;;;1.60;;
13571;SDS011;6857;53.484;10.216;2023-04-24T04:23:33;2.17;;;1.80;;
13571;SDS011;6857;53.484;10.216;2023-04-24T04:25:59;3.53;;;1.50;;
13571;SDS011;6857;53.484;10.216;2023-04-24T04:28:26;1.50;;;1.40;;
13571;SDS011;6857;53.484;10.216;2023-04-24T04:30:52;1.70;;;1.30;;
13571;SDS011;6857;53.484;10.216;2023-04-24T04:33:22;1.80;;;1.40;;
13571;SDS011;6857;53.484;10.216;2023-04-24T04:35:48;1.47;;;1.33;;
13571;SDS011;6857;53.484;10.216;2023-04-24T04:38:16;1.50;;;1.40;;
13571;SDS011;6857;53.484;10.216;2023-04-24T04:40:43;1.67;;;1.30;;
13571;SDS011;6857;53.484;10.216;2023-04-24T04:43:09;1.83;;;1.30;;
13571;SDS011;6857;53.484;10.216;2023-04-24T04:45:36;2.47;;;1.70;;
13571;SDS011;6857;53.484;10.216;2023-04-24T04:48:02;1.77;;;1.30;;
13571;SDS011;6857;53.484;10.216;2023-04-24T04:50:28;1.63;;;1.53;;
13571;SDS011;6857;53.484;10.216;2023-04-24T04:52:54;1.43;;;1.33;;
13571;SDS011;6857;53.484;10.216;2023-04-24T04:55:20;2.13;;;1.90;;
13571;SDS011;6857;53.484;10.216;2023-04-24T04:57:46;3.53;;;1.50;;
13571;SDS011;6857;53.484;10.216;2023-04-24T05:00:12;2.87;;;2.40;;
13571;SDS011;6857;53.484;10.216;2023-04-24T05:02:38;14.10;;;9.00;;
13571;SDS011;6857;53.484;10.216;2023-04-24T05:05:05;3.07;;;2.23;;
13571;SDS011;6857;53.484;10.216;2023-04-24T05:07:31;3.30;;;2.60;;
13571;SDS011;6857;53.484;10.216;2023-04-24T05:09:57;4.97;;;2.60;;
13571;SDS011;6857;53.484;10.216;2023-04-24T05:12:23;4.77;;;3.43;;
13571;SDS011;6857;53.484;10.216;2023-04-24T05:14:49;4.53;;;2.73;;
13571;SDS011;6857;53.484;10.216;2023-04-24T05:17:15;4.23;;;2.90;;
13571;SDS011;6857;53.484;10.216;2023-04-24T05:19:41;3.50;;;2.83;;
13571;SDS011;6857;53.484;10.216;2023-04-24T05:22:08;4.23;;;3.67;;
13571;SDS011;6857;53.484;10.216;2023-04-24T05:24:34;3.83;;;2.60;;
13571;SDS011;6857;53.484;10.216;2023-04-24T05:27:01;3.40;;;2.33;;
13571;SDS011;6857;53.484;10.216;2023-04-24T05:29:27;4.00;;;3.70;;
13571;SDS011;6857;53.484;10.216;2023-04-24T05:31:55;2.23;;;2.10;;
13571;SDS011;6857;53.484;10.216;2023-04-24T05:34:21;3.77;;;3.40;;
13571;SDS011;6857;53.484;10.216;2023-04-24T05:36:47;3.10;;;2.07;;
13571;SDS011;6857;53.484;10.216;2023-04-24T05:39:13;5.97;;;3.57;;
13571;SDS011;6857;53.484;10.216;2023-04-24T05:41:40;4.80;;;3.80;;
13571;SDS011;6857;53.484;10.216;2023-04-24T05:44:06;1.73;;;1.40;;
13571;SDS011;6857;53.484;10.216;2023-04-24T05:46:32;1.43;;;1.23;;
13571;SDS011;6857;53.484;10.216;2023-04-24T05:48:58;2.93;;;1.50;;
13571;SDS011;6857;53.484;10.216;2023-04-24T05:51:24;2.17;;;1.30;;
13571;SDS011;6857;53.484;10.216;2023-04-24T05:53:50;2.13;;;1.47;;
13571;SDS011;6857;53.484;10.216;2023-04-24T05:56:16;3.50;;;1.50;;
13571;SDS011;6857;53.484;10.216;2023-04-24T05:58:43;2.20;;;1.20;;
13571;SDS011;6857;53.484;10.216;2023-04-24T06:01:09;2.50;;;1.67;;
13571;SDS011;6857;53.484;10.216;2023-04-24T06:03:35;3.57;;;1.93;;
13571;SDS011;6857;53.484;10.216;2023-04-24T06:06:01;9.67;;;2.50;;
13571;SDS011;6857;53.484;10.216;2023-04-24T06:08:27;8.30;;;1.90;;
13571;SDS011;6857;53.484;10.216;2023-04-24T06:10:53;14.93;;;2.50;;
13571;SDS011;6857;53.484;10.216;2023-04-24T06:13:19;4.63;;;2.80;;
13571;SDS011;6857;53.484;10.216;2023-04-24T06:15:45;4.60;;;1.57;;
13571;SDS011;6857;53.484;10.216;2023-04-24T06:18:10;2.70;;;1.40;;
13571;SDS011;6857;53.484;10.216;2023-04-24T06:20:37;4.17;;;1.50;;
13571;SDS011;6857;53.484;10.216;2023-04-24T06:23:03;3.53;;;1.30;;
13571;SDS011;6857;53.484;10.216;2023-04-24T06:25:29;5.13;;;1.90;;
13571;SDS011;6857;53.484;10.216;2023-04-24T06:27:55;4.17;;;1.40;;
13571;SDS011;6857;53.484;10.216;2023-04-24T06:30:21;1.63;;;1.23;;
13571;SDS011;6857;53.484;10.216;2023-04-24T06:32:47;5.67;;;2.20;;
13571;SDS011;6857;53.484;10.216;2023-04-24T06:35:13;12.60;;;2.07;;
13571;SDS011;6857;53.484;10.216;2023-04-24T06:37:40;3.53;;;1.33;;
13571;SDS011;6857;53.484;10.216;2023-04-24T06:40:06;2.40;;;1.43;;
13571;SDS011;6857;53.484;10.216;2023-04-24T06:42:33;7.60;;;3.00;;
13571;SDS011;6857;53.484;10.216;2023-04-24T06:44:59;8.07;;;2.80;;
13571;SDS011;6857;53.484;10.216;2023-04-24T06:47:25;5.40;;;1.93;;
13571;SDS011;6857;53.484;10.216;2023-04-24T06:49:51;6.90;;;2.70;;
13571;SDS011;6857;53.484;10.216;2023-04-24T06:52:18;2.77;;;1.50;;
13571;SDS011;6857;53.484;10.216;2023-04-24T06:54:44;3.50;;;2.20;;
13571;SDS011;6857;53.484;10.216;2023-04-24T06:57:10;5.20;;;2.50;;
13571;SDS011;6857;53.484;10.216;2023-04-24T06:59:36;1.50;;;1.40;;
13571;SDS011;6857;53.484;10.216;2023-04-24T07:02:02;1.87;;;1.50;;
13571;SDS011;6857;53.484;10.216;2023-04-24T07:04:28;6.80;;;2.37;;
13571;SDS011;6857;53.484;10.216;2023-04-24T07:06:55;1.97;;;1.67;;
13571;SDS011;6857;53.484;10.216;2023-04-24T07:09:22;2.80;;;1.70;;
13571;SDS011;6857;53.484;10.216;2023-04-24T07:11:50;8.47;;;1.50;;
13571;SDS011;6857;53.484;10.216;2023-04-24T07:14:16;8.87;;;2.10;;
13571;SDS011;6857;53.484;10.216;2023-04-24T07:16:42;4.53;;;3.43;;
13571;SDS011;6857;53.484;10.216;2023-04-24T07:19:08;2.50;;;2.10;;
13571;SDS011;6857;53.484;10.216;2023-04-24T07:21:35;2.50;;;1.80;;
13571;SDS011;6857;53.484;10.216;2023-04-24T07:24:01;2.63;;;1.80;;
13571;SDS011;6857;53.484;10.216;2023-04-24T07:26:28;6.27;;;2.00;;
13571;SDS011;6857;53.484;10.216;2023-04-24T07:28:54;7.30;;;2.27;;
13571;SDS011;6857;53.484;10.216;2023-04-24T07:31:20;3.97;;;2.17;;
13571;SDS011;6857;53.484;10.216;2023-04-24T07:33:46;2.20;;;2.00;;
13571;SDS011;6857;53.484;10.216;2023-04-24T07:36:12;4.53;;;2.57;;
13571;SDS011;6857;53.484;10.216;2023-04-24T07:38:42;6.97;;;2.67;;
13571;SDS011;6857;53.484;10.216;2023-04-24T07:41:08;5.57;;;2.20;;
13571;SDS011;6857;53.484;10.216;2023-04-24T07:43:34;2.20;;;1.70;;
13571;SDS011;6857;53.484;10.216;2023-04-24T07:46:00;10.33;;;2.10;;
13571;SDS011;6857;53.484;10.216;2023-04-24T07:48:26;2.70;;;1.97;;
13571;SDS011;6857;53.484;10.216;2023-04-24T07:50:53;2.00;;;1.80;;
13571;SDS011;6857;53.484;10.216;2023-04-24T07:53:19;6.43;;;2.83;;
13571;SDS011;6857;53.484;10.216;2023-04-24T07:55:45;2.33;;;2.13;;
13571;SDS011;6857;53.484;10.216;2023-04-24T07:58:11;2.60;;;1.70;;
13571;SDS011;6857;53.484;10.216;2023-04-24T08:00:36;2.27;;;2.07;;
13571;SDS011;6857;53.484;10.216;2023-04-24T08:03:02;3.40;;;2.00;;
13571;SDS011;6857;53.484;10.216;2023-04-24T08:05:27;2.90;;;1.90;;
13571;SDS011;6857;53.484;10.216;2023-04-24T08:07:53;2.53;;;2.10;;
13571;SDS011;6857;53.484;10.216;2023-04-24T08:10:20;2.20;;;2.00;;
13571;SDS011;6857;53.484;10.216;2023-04-24T08:12:46;1.70;;;1.60;;
13571;SDS011;6857;53.484;10.216;2023-04-24T08:15:12;2.83;;;1.80;;
13571;SDS011;6857;53.484;10.216;2023-04-24T08:17:37;3.07;;;2.30;;
13571;SDS011;6857;53.484;10.216;2023-04-24T08:20:06;3.10;;;2.33;;
13571;SDS011;6857;53.484;10.216;2023-04-24T08:22:35;2.60;;;2.33;;
13571;SDS011;6857;53.484;10.216;2023-04-24T08:25:01;2.30;;;2.10;;
13571;SDS011;6857;53.484;10.216;2023-04-24T08:27:27;3.20;;;2.67;;
13571;SDS011;6857;53.484;10.216;2023-04-24T08:29:53;3.50;;;3.20;;
13571;SDS011;6857;53.484;10.216;2023-04-24T08:32:19;3.40;;;2.70;;
13571;SDS011;6857;53.484;10.216;2023-04-24T08:34:45;4.67;;;3.30;;
13571;SDS011;6857;53.484;10.216;2023-04-24T08:37:11;3.63;;;3.30;;
13571;SDS011;6857;53.484;10.216;2023-04-24T08:39:37;3.57;;;3.27;;
13571;SDS011;6857;53.484;10.216;2023-04-24T08:42:04;3.40;;;3.07;;
13571;SDS011;6857;53.484;10.216;2023-04-24T08:44:32;4.93;;;3.17;;
13571;SDS011;6857;53.484;10.216;2023-04-24T08:46:58;4.97;;;3.83;;
13571;SDS011;6857;53.484;10.216;2023-04-24T08:49:24;4.03;;;3.63;;
13571;SDS011;6857;53.484;10.216;2023-04-24T08:51:51;4.27;;;3.67;;
13571;SDS011;6857;53.484;10.216;2023-04-24T08:54:18;4.93;;;3.90;;
13571;SDS011;6857;53.484;10.216;2023-04-24T08:56:47;6.00;;;3.87;;
13571;SDS011;6857;53.484;10.216;2023-04-24T08:59:16;4.40;;;4.00;;
13571;SDS011;6857;53.484;10.216;2023-04-24T09:01:45;7.33;;;4.77;;
13571;SDS011;6857;53.484;10.216;2023-04-24T09:04:11;4.77;;;4.37;;
13571;SDS011;6857;53.484;10.216;2023-04-24T09:06:39;9.40;;;4.73;;
13571;SDS011;6857;53.484;10.216;2023-04-24T09:09:07;8.80;;;4.63;;
13571;SDS011;6857;53.484;10.216;2023-04-24T09:11:36;4.50;;;4.10;;
13571;SDS011;6857;53.484;10.216;2023-04-24T09:14:05;5.53;;;4.10;;
13571;SDS011;6857;53.484;10.216;2023-04-24T09:16:34;4.37;;;3.97;;
13571;SDS011;6857;53.484;10.216;2023-04-24T09:19:02;4.60;;;4.20;;
13571;SDS011;6857;53.484;10.216;2023-04-24T09:21:32;7.37;;;5.00;;
13571;SDS011;6857;53.484;10.216;2023-04-24T09:24:00;4.47;;;4.00;;
13571;SDS011;6857;53.484;10.216;2023-04-24T09:26:30;4.87;;;4.27;;
13571;SDS011;6857;53.484;10.216;2023-04-24T09:28:57;5.83;;;4.00;;
13571;SDS011;6857;53.484;10.216;2023-04-24T09:31:26;3.63;;;3.33;;
13571;SDS011;6857;53.484;10.216;2023-04-24T09:33:54;5.83;;;3.50;;
13571;SDS011;6857;53.484;10.216;2023-04-24T09:36:54;6.50;;;4.07;;
13571;SDS011;6857;53.484;10.216;2023-04-24T09:39:14;6.70;;;4.10;;
13571;SDS011;6857;53.484;10.216;2023-04-24T09:41:48;4.50;;;4.10;;
13571;SDS011;6857;53.484;10.216;2023-04-24T09:46:45;5.63;;;3.80;;
13571;SDS011;6857;53.484;10.216;2023-04-24T09:49:15;4.53;;;3.90;;
13571;SDS011;6857;53.484;10.216;2023-04-24T09:51:42;7.30;;;4.70;;
13571;SDS011;6857;53.484;10.216;2023-04-24T09:54:15;8.03;;;3.10;;
13571;SDS011;6857;53.484;10.216;2023-04-24T09:56:45;7.10;;;3.77;;
13571;SDS011;6857;53.484;10.216;2023-04-24T09:59:14;6.20;;;3.93;;
13571;SDS011;6857;53.484;10.216;2023-04-24T10:01:41;10.90;;;5.20;;
13571;SDS011;6857;53.484;10.216;2023-04-24T10:04:20;5.63;;;4.63;;
13571;SDS011;6857;53.484;10.216;2023-04-24T10:06:50;4.67;;;4.20;;
13571;SDS011;6857;53.484;10.216;2023-04-24T10:09:20;9.97;;;4.40;;
13571;SDS011;6857;53.484;10.216;2023-04-24T10:11:50;5.43;;;4.50;;
13571;SDS011;6857;53.484;10.216;2023-04-24T10:14:20;6.33;;;4.20;;
13571;SDS011;6857;53.484;10.216;2023-04-24T10:16:47;4.90;;;4.13;;
13571;SDS011;6857;53.484;10.216;2023-04-24T10:19:14;5.47;;;4.70;;
13571;SDS011;6857;53.484;10.216;2023-04-24T10:21:41;6.60;;;4.80;;
13571;SDS011;6857;53.484;10.216;2023-04-24T10:24:11;8.90;;;5.37;;
13571;SDS011;6857;53.484;10.216;2023-04-24T10:26:40;7.50;;;5.57;;
13571;SDS011;6857;53.484;10.216;2023-04-24T10:29:07;7.27;;;5.23;;
13571;SDS011;6857;53.484;10.216;2023-04-24T10:31:37;11.40;;;5.50;;
13571;SDS011;6857;53.484;10.216;2023-04-24T10:34:03;7.33;;;5.37;;
13571;SDS011;6857;53.484;10.216;2023-04-24T10:36:30;13.70;;;6.60;;
13571;SDS011;6857;53.484;10.216;2023-04-24T10:38:59;6.73;;;5.37;;
13571;SDS011;6857;53.484;10.216;2023-04-24T10:41:27;10.73;;;5.90;;
13571;SDS011;6857;53.484;10.216;2023-04-24T10:44:04;14.00;;;5.70;;
13571;SDS011;6857;53.484;10.216;2023-04-24T10:46:30;8.73;;;5.87;;
13571;SDS011;6857;53.484;10.216;2023-04-24T10:48:56;6.60;;;5.80;;
13571;SDS011;6857;53.484;10.216;2023-04-24T10:51:23;9.47;;;6.47;;
13571;SDS011;6857;53.484;10.216;2023-04-24T10:53:50;10.50;;;6.70;;
13571;SDS011;6857;53.484;10.216;2023-04-24T10:56:16;7.77;;;6.80;;
13571;SDS011;6857;53.484;10.216;2023-04-24T10:58:43;9.27;;;6.40;;
13571;SDS011;6857;53.484;10.216;2023-04-24T11:01:24;8.63;;;6.37;;
13571;SDS011;6857;53.484;10.216;2023-04-24T11:03:54;8.50;;;6.67;;
13571;SDS011;6857;53.484;10.216;2023-04-24T11:06:30;9.87;;;7.00;;
13571;SDS011;6857;53.484;10.216;2023-04-24T11:09:09;8.20;;;7.13;;
13571;SDS011;6857;53.484;10.216;2023-04-24T11:11:38;9.13;;;7.27;;
13571;SDS011;6857;53.484;10.216;2023-04-24T11:14:14;8.33;;;6.67;;
13571;SDS011;6857;53.484;10.216;2023-04-24T11:16:43;8.27;;;6.50;;
13571;SDS011;6857;53.484;10.216;2023-04-24T11:21:43;7.83;;;6.30;;
13571;SDS011;6857;53.484;10.216;2023-04-24T11:26:58;6.83;;;5.60;;
13571;SDS011;6857;53.484;10.216;2023-04-24T11:32:16;10.03;;;6.07;;
13571;SDS011;6857;53.484;10.216;2023-04-24T11:34:47;6.83;;;5.73;;
13571;SDS011;6857;53.484;10.216;2023-04-24T11:37:14;7.30;;;5.97;;
13571;SDS011;6857;53.484;10.216;2023-04-24T11:39:40;8.23;;;5.60;;
13571;SDS011;6857;53.484;10.216;2023-04-24T11:42:08;8.37;;;5.43;;
13571;SDS011;6857;53.484;10.216;2023-04-24T11:44:35;6.60;;;5.00;;
13571;SDS011;6857;53.484;10.216;2023-04-24T11:47:05;7.27;;;5.60;;
13571;SDS011;6857;53.484;10.216;2023-04-24T11:49:32;7.30;;;4.70;;
13571;SDS011;6857;53.484;10.216;2023-04-24T11:51:59;5.70;;;4.77;;
13571;SDS011;6857;53.484;10.216;2023-04-24T11:54:26;19.30;;;4.57;;
13571;SDS011;6857;53.484;10.216;2023-04-24T11:56:53;10.03;;;4.10;;
13571;SDS011;6857;53.484;10.216;2023-04-24T11:59:21;5.37;;;3.80;;
13571;SDS011;6857;53.484;10.216;2023-04-24T12:01:46;7.03;;;4.73;;
13571;SDS011;6857;53.484;10.216;2023-04-24T12:04:13;8.97;;;5.30;;
13571;SDS011;6857;53.484;10.216;2023-04-24T12:06:39;7.90;;;4.70;;
13571;SDS011;6857;53.484;10.216;2023-04-24T12:09:05;7.93;;;4.60;;
13571;SDS011;6857;53.484;10.216;2023-04-24T12:11:33;6.07;;;3.83;;
13571;SDS011;6857;53.484;10.216;2023-04-24T12:14:09;6.33;;;3.87;;
13571;SDS011;6857;53.484;10.216;2023-04-24T12:16:35;5.40;;;3.97;;
13571;SDS011;6857;53.484;10.216;2023-04-24T12:19:02;5.57;;;3.57;;
13571;SDS011;6857;53.484;10.216;2023-04-24T12:21:28;4.00;;;3.60;;
13571;SDS011;6857;53.484;10.216;2023-04-24T12:23:56;4.43;;;3.87;;
13571;SDS011;6857;53.484;10.216;2023-04-24T12:26:23;5.43;;;4.20;;
13571;SDS011;6857;53.484;10.216;2023-04-24T12:28:50;5.73;;;4.40;;
13571;SDS011;6857;53.484;10.216;2023-04-24T12:31:17;7.33;;;4.07;;
13571;SDS011;6857;53.484;10.216;2023-04-24T12:33:44;5.50;;;3.57;;
13571;SDS011;6857;53.484;10.216;2023-04-24T12:36:11;9.67;;;4.67;;
13571;SDS011;6857;53.484;10.216;2023-04-24T12:38:38;9.83;;;6.17;;
13571;SDS011;6857;53.484;10.216;2023-04-24T12:41:06;8.40;;;4.30;;
13571;SDS011;6857;53.484;10.216;2023-04-24T12:43:33;13.50;;;5.27;;
13571;SDS011;6857;53.484;10.216;2023-04-24T12:46:00;16.60;;;5.20;;
13571;SDS011;6857;53.484;10.216;2023-04-24T12:48:27;5.13;;;3.97;;
13571;SDS011;6857;53.484;10.216;2023-04-24T12:50:53;6.20;;;4.10;;
13571;SDS011;6857;53.484;10.216;2023-04-24T12:53:21;4.67;;;4.20;;
13571;SDS011;6857;53.484;10.216;2023-04-24T12:55:48;4.70;;;4.30;;
13571;SDS011;6857;53.484;10.216;2023-04-24T12:58:20;15.03;;;4.87;;
13571;SDS011;6857;53.484;10.216;2023-04-24T13:00:47;7.67;;;4.33;;
13571;SDS011;6857;53.484;10.216;2023-04-24T13:03:14;5.57;;;3.93;;
13571;SDS011;6857;53.484;10.216;2023-04-24T13:05:42;9.50;;;4.20;;
13571;SDS011;6857;53.484;10.216;2023-04-24T13:08:08;11.70;;;3.67;;
13571;SDS011;6857;53.484;10.216;2023-04-24T13:10:34;11.23;;;4.73;;
13571;SDS011;6857;53.484;10.216;2023-04-24T13:13:00;6.47;;;4.20;;
13571;SDS011;6857;53.484;10.216;2023-04-24T13:15:26;9.60;;;4.90;;
13571;SDS011;6857;53.484;10.216;2023-04-24T13:17:52;14.40;;;5.17;;
13571;SDS011;6857;53.484;10.216;2023-04-24T13:20:18;7.50;;;3.77;;
13571;SDS011;6857;53.484;10.216;2023-04-24T13:22:45;5.43;;;3.80;;
13571;SDS011;6857;53.484;10.216;2023-04-24T13:25:11;4.87;;;3.80;;
13571;SDS011;6857;53.484;10.216;2023-04-24T13:27:40;11.40;;;4.30;;
13571;SDS011;6857;53.484;10.216;2023-04-24T13:30:06;4.20;;;3.80;;
13571;SDS011;6857;53.484;10.216;2023-04-24T13:32:32;16.03;;;4.90;;
13571;SDS011;6857;53.484;10.216;2023-04-24T13:34:58;11.60;;;5.37;;
13571;SDS011;6857;53.484;10.216;2023-04-24T13:37:24;21.87;;;7.13;;
13571;SDS011;6857;53.484;10.216;2023-04-24T13:39:51;7.43;;;4.30;;
13571;SDS011;6857;53.484;10.216;2023-04-24T13:42:18;5.53;;;4.60;;
13571;SDS011;6857;53.484;10.216;2023-04-24T13:44:46;6.90;;;3.90;;
13571;SDS011;6857;53.484;10.216;2023-04-24T13:47:13;5.27;;;3.37;;
13571;SDS011;6857;53.484;10.216;2023-04-24T13:49:39;11.77;;;3.60;;
13571;SDS011;6857;53.484;10.216;2023-04-24T13:52:05;3.87;;;3.10;;
13571;SDS011;6857;53.484;10.216;2023-04-24T13:54:32;4.30;;;2.60;;
13571;SDS011;6857;53.484;10.216;2023-04-24T13:56:59;4.03;;;3.03;;
13571;SDS011;6857;53.484;10.216;2023-04-24T13:59:28;3.53;;;2.80;;
13571;SDS011;6857;53.484;10.216;2023-04-24T14:01:54;3.00;;;2.80;;
13571;SDS011;6857;53.484;10.216;2023-04-24T14:04:22;3.30;;;3.00;;
13571;SDS011;6857;53.484;10.216;2023-04-24T14:06:50;4.87;;;2.37;;
13571;SDS011;6857;53.484;10.216;2023-04-24T14:09:17;6.90;;;2.80;;
13571;SDS011;6857;53.484;10.216;2023-04-24T14:11:43;12.97;;;3.47;;
13571;SDS011;6857;53.484;10.216;2023-04-24T14:14:10;10.63;;;3.20;;
13571;SDS011;6857;53.484;10.216;2023-04-24T14:16:37;2.90;;;2.30;;
13571;SDS011;6857;53.484;10.216;2023-04-24T14:19:04;6.27;;;2.80;;
13571;SDS011;6857;53.484;10.216;2023-04-24T14:21:33;2.60;;;2.10;;
13571;SDS011;6857;53.484;10.216;2023-04-24T14:24:01;4.67;;;2.47;;
13571;SDS011;6857;53.484;10.216;2023-04-24T14:26:28;12.03;;;2.67;;
13571;SDS011;6857;53.484;10.216;2023-04-24T14:28:56;11.67;;;3.10;;
13571;SDS011;6857;53.484;10.216;2023-04-24T14:31:24;2.40;;;2.20;;
13571;SDS011;6857;53.484;10.216;2023-04-24T14:33:49;2.93;;;2.57;;
13571;SDS011;6857;53.484;10.216;2023-04-24T14:36:15;3.30;;;2.50;;
13571;SDS011;6857;53.484;10.216;2023-04-24T14:38:40;3.60;;;2.37;;
13571;SDS011;6857;53.484;10.216;2023-04-24T14:41:06;4.10;;;2.33;;
13571;SDS011;6857;53.484;10.216;2023-04-24T14:43:35;2.50;;;2.30;;
13571;SDS011;6857;53.484;10.216;2023-04-24T14:46:01;15.90;;;4.20;;
13571;SDS011;6857;53.484;10.216;2023-04-24T14:48:27;8.83;;;3.53;;
13571;SDS011;6857;53.484;10.216;2023-04-24T14:50:54;4.23;;;2.57;;
13571;SDS011;6857;53.484;10.216;2023-04-24T14:53:20;7.83;;;3.80;;